createdAt,value
2023-04-10T00:03:27.967Z,100.00
2023-04-10T00:08:30.510Z,100.00
2023-04-10T00:13:32.488Z,100.00
2023-04-10T00:18:34.264Z,100.00
2023-04-10T00:23:36.856Z,100.00
2023-04-10T00:28:38.760Z,100.00
2023-04-10T00:33:40.508Z,100.00
2023-04-10T00:38:42.180Z,100.00
2023-04-10T00:43:44.983Z,100.00
2023-04-10T00:48:46.649Z,100.00
2023-04-10T00:53:54.399Z,100.00
2023-04-10T00:58:56.447Z,100.00
2023-04-10T01:03:59.650Z,100.00
2023-04-10T01:09:30.102Z,100.00
2023-04-10T01:14:46.523Z,100.00
2023-04-10T01:20:01.708Z,100.00
2023-04-10T01:25:21.707Z,100.00
2023-04-10T01:30:25.020Z,100.00
2023-04-10T01:35:30.026Z,100.00
2023-04-10T01:40:35.135Z,100.00
2023-04-10T01:45:41.401Z,100.00
2023-04-10T01:50:44.997Z,100.00
2023-04-10T01:55:47.824Z,100.00
2023-04-10T02:00:49.493Z,100.00
2023-04-10T02:05:56.690Z,100.00
2023-04-10T02:11:15.087Z,100.00
2023-04-10T02:16:21.323Z,100.00
2023-04-10T02:21:23.211Z,100.00
2023-04-10T02:26:25.097Z,100.00
2023-04-10T02:31:27.077Z,100.00
2023-04-10T02:36:29.362Z,100.00
2023-04-10T02:41:31.443Z,100.00
2023-04-10T02:46:33.423Z,100.00
2023-04-10T02:51:36.392Z,100.00
2023-04-10T02:56:38.193Z,100.00
2023-04-10T03:01:40.360Z,100.00
2023-04-10T03:06:42.972Z,100.00
2023-04-10T03:11:44.693Z,100.00
2023-04-10T03:16:47.444Z,100.00
2023-04-10T03:21:49.113Z,100.00
2023-04-10T03:26:51.605Z,100.00
2023-04-10T03:31:53.556Z,100.00
2023-04-10T03:36:55.577Z,100.00
2023-04-10T03:41:57.654Z,100.00
2023-04-10T03:46:59.448Z,100.00
2023-04-10T03:52:01.297Z,100.00
2023-04-10T03:57:03.279Z,100.00
2023-04-10T04:02:06.877Z,100.00
2023-04-10T04:07:09.791Z,100.00
2023-04-10T04:12:11.579Z,100.00
2023-04-10T04:17:14.159Z,100.00
2023-04-10T04:22:15.932Z,100.00
2023-04-10T04:27:18.424Z,100.00
2023-04-10T04:32:20.291Z,100.00
2023-04-10T04:37:22.182Z,100.00
2023-04-10T04:42:23.904Z,100.00
2023-04-10T04:47:25.691Z,100.00
2023-04-10T04:52:27.708Z,100.00
2023-04-10T04:57:29.689Z,99.85
2023-04-10T05:02:31.456Z,97.57
2023-04-10T05:07:33.958Z,94.27
2023-04-10T05:12:35.731Z,91.25
2023-04-10T05:17:37.422Z,88.33
2023-04-10T05:22:39.282Z,84.36
2023-04-10T05:27:40.948Z,80.98
2023-04-10T05:32:42.698Z,78.05
2023-04-10T05:37:44.810Z,73.59
2023-04-10T05:42:46.698Z,69.42
2023-04-10T05:47:48.613Z,66.63
2023-04-10T05:52:50.846Z,63.81
2023-04-10T05:57:53.439Z,61.45
2023-04-10T06:02:55.499Z,57.27
2023-04-10T06:07:58.539Z,54.59
2023-04-10T06:13:00.959Z,51.92
2023-04-10T06:18:02.822Z,49.51
2023-04-10T06:23:05.633Z,48.53
2023-04-10T06:28:07.512Z,47.38
2023-04-10T06:33:09.134Z,45.43
2023-04-10T06:38:11.934Z,43.60
2023-04-10T06:43:14.735Z,40.50
2023-04-10T06:48:16.922Z,39.06
2023-04-10T06:53:18.698Z,37.51
2023-04-10T06:58:20.890Z,36.97
2023-04-10T07:03:22.845Z,36.70
2023-04-10T07:08:25.359Z,34.32
2023-04-10T07:13:27.035Z,32.30
2023-04-10T07:18:28.933Z,31.62
2023-04-10T07:23:30.675Z,30.23
2023-04-10T07:28:32.967Z,29.88
2023-04-10T07:33:36.142Z,29.28
2023-04-10T07:38:38.360Z,28.70
2023-04-10T07:43:41.156Z,28.55
2023-04-10T07:48:43.952Z,27.34
2023-04-10T07:53:45.743Z,27.99
2023-04-10T07:58:48.127Z,26.43
2023-04-10T08:03:50.182Z,25.92
2023-04-10T08:08:53.100Z,25.81
2023-04-10T08:14:02.653Z,25.40
2023-04-10T08:19:04.576Z,23.77
2023-04-10T08:24:06.619Z,23.59
2023-04-10T08:29:09.027Z,24.24
2023-04-10T08:34:11.401Z,24.12
2023-04-10T08:39:13.166Z,23.85
2023-04-10T08:44:15.093Z,23.02
2023-04-10T08:49:23.986Z,22.48
2023-04-10T08:54:28.971Z,23.21
2023-04-10T08:59:32.051Z,23.04
2023-04-10T09:04:34.566Z,22.92
2023-04-10T09:09:38.466Z,22.35
2023-04-10T09:14:41.980Z,21.35
2023-04-10T09:19:46.893Z,22.35
2023-04-10T09:24:49.219Z,21.43
2023-04-10T09:29:51.401Z,21.87
2023-04-10T09:34:58.528Z,21.29
2023-04-10T09:40:02.233Z,21.51
2023-04-10T09:45:06.799Z,21.02
2023-04-10T09:50:10.182Z,20.30
2023-04-10T09:55:16.981Z,21.06
2023-04-10T10:00:20.125Z,21.86
2023-04-10T10:05:22.875Z,21.26
2023-04-10T10:10:26.280Z,21.16
2023-04-10T10:15:36.960Z,21.21
2023-04-10T10:20:43.948Z,24.33
2023-04-10T10:25:46.774Z,26.93
2023-04-10T10:30:49.556Z,28.90
2023-04-10T10:35:53.593Z,31.62
2023-04-10T10:41:06.018Z,33.69
2023-04-10T10:46:20.409Z,35.91
2023-04-10T10:51:22.258Z,37.50
2023-04-10T10:56:26.389Z,38.60
2023-04-10T11:01:28.415Z,39.68
2023-04-10T11:06:51.739Z,40.53
2023-04-10T11:12:00.087Z,40.88
2023-04-10T11:17:03.052Z,41.78
2023-04-10T11:22:07.621Z,42.00
2023-04-10T11:27:29.565Z,42.39
2023-04-10T11:32:51.835Z,42.60
2023-04-10T11:38:11.417Z,42.51
2023-04-10T11:43:14.308Z,43.03
2023-04-10T11:48:17.012Z,41.78
2023-04-10T11:53:21.857Z,41.78
2023-04-10T11:58:25.976Z,42.20
2023-04-10T12:03:42.365Z,43.81
2023-04-10T12:08:50.736Z,45.24
2023-04-10T12:13:57.715Z,45.10
2023-04-10T12:18:59.507Z,44.39
2023-04-10T12:24:01.577Z,43.96
2023-04-10T12:29:05.703Z,43.31
2023-04-10T12:34:10.744Z,42.67
2023-04-10T12:39:23.295Z,43.76
2023-04-10T12:44:24.977Z,43.28
2023-04-10T12:49:26.634Z,43.14
2023-04-10T12:54:30.971Z,41.54
2023-04-10T12:59:33.356Z,42.77
2023-04-10T13:04:35.142Z,42.94
2023-04-10T13:09:37.523Z,43.03
2023-04-10T13:14:39.190Z,43.34
2023-04-10T13:19:41.081Z,42.90
2023-04-10T13:24:44.175Z,43.40
2023-04-10T13:29:46.363Z,43.88
2023-04-10T13:34:48.539Z,43.59
2023-04-10T13:39:51.031Z,43.01
2023-04-10T13:44:52.916Z,43.98
2023-04-10T13:49:54.997Z,44.85
2023-04-10T13:54:56.773Z,45.47
2023-04-10T13:59:59.058Z,45.99
2023-04-10T14:05:01.033Z,45.37
2023-04-10T14:10:04.513Z,44.92
2023-04-10T14:15:07.512Z,45.03
2023-04-10T14:20:13.220Z,45.25
2023-04-10T14:25:15.512Z,45.51
2023-04-10T14:30:17.496Z,45.21
2023-04-10T14:35:19.462Z,44.86
2023-04-10T14:40:21.951Z,45.12
2023-04-10T14:45:25.669Z,45.35
2023-04-10T14:50:31.656Z,45.79
2023-04-10T14:55:33.731Z,46.05
2023-04-10T15:00:35.819Z,45.85
2023-04-10T15:05:38.001Z,45.45
2023-04-10T15:10:41.717Z,44.86
2023-04-10T15:15:44.930Z,44.28
2023-04-10T15:20:46.800Z,43.72
2023-04-10T15:25:48.674Z,43.74
2023-04-10T15:30:51.673Z,44.51
2023-04-10T15:35:53.603Z,45.42
2023-04-10T15:40:56.462Z,45.83
2023-04-10T15:46:00.153Z,46.14
2023-04-10T15:51:08.509Z,46.54
2023-04-10T15:56:10.902Z,46.98
2023-04-10T16:01:14.313Z,47.19
2023-04-10T16:06:17.210Z,46.05
2023-04-10T16:11:20.493Z,47.17
2023-04-10T16:16:23.246Z,47.82
2023-04-10T16:21:26.729Z,48.37
2023-04-10T16:26:28.506Z,49.03
2023-04-10T16:31:30.541Z,49.73
2023-04-10T16:36:33.544Z,50.03
2023-04-10T16:41:35.693Z,50.22
2023-04-10T16:46:38.212Z,50.30
2023-04-10T16:51:40.662Z,49.82
2023-04-10T16:56:43.246Z,49.53
2023-04-10T17:01:46.340Z,49.69
2023-04-10T17:06:48.643Z,49.95
2023-04-10T17:11:52.961Z,50.58
2023-04-10T17:16:55.657Z,51.18
2023-04-10T17:21:57.855Z,51.72
2023-04-10T17:27:01.696Z,52.39
2023-04-10T17:32:03.573Z,53.09
2023-04-10T17:37:06.253Z,54.19
2023-04-10T17:42:08.461Z,56.31
2023-04-10T17:47:10.833Z,58.42
2023-04-10T17:52:12.925Z,60.08
2023-04-10T17:57:15.438Z,61.22
2023-04-10T18:02:18.938Z,62.73
2023-04-10T18:07:21.530Z,63.64
2023-04-10T18:12:24.917Z,64.71
2023-04-10T18:17:28.622Z,65.77
2023-04-10T18:22:31.951Z,66.44
2023-04-10T18:27:36.018Z,66.55
2023-04-10T18:32:38.206Z,66.48
2023-04-10T18:37:42.008Z,66.29
2023-04-10T18:42:44.544Z,66.38
2023-04-10T18:47:47.418Z,66.79
2023-04-10T18:52:49.469Z,67.14
2023-04-10T18:57:52.082Z,67.75
2023-04-10T19:02:55.331Z,68.77
2023-04-10T19:08:04.294Z,70.96
2023-04-10T19:13:12.344Z,72.47
2023-04-10T19:18:15.863Z,73.43
2023-04-10T19:23:21.488Z,73.64
2023-04-10T19:28:26.132Z,74.48
2023-04-10T19:33:29.893Z,75.43
2023-04-10T19:38:33.492Z,76.75
2023-04-10T19:43:36.091Z,77.72
2023-04-10T19:48:38.705Z,78.38
2023-04-10T19:53:42.210Z,78.93
2023-04-10T19:58:46.292Z,79.79
2023-04-10T20:03:49.971Z,80.76
2023-04-10T20:08:52.678Z,81.54
2023-04-10T20:13:55.538Z,82.28
2023-04-10T20:18:57.623Z,82.55
2023-04-10T20:23:59.872Z,82.90
2023-04-10T20:29:01.793Z,83.39
2023-04-10T20:34:04.189Z,83.77
2023-04-10T20:39:07.076Z,83.69
2023-04-10T20:44:09.977Z,83.68
2023-04-10T20:49:15.437Z,83.70
2023-04-10T20:54:18.796Z,84.68
2023-04-10T20:59:21.237Z,85.92
2023-04-10T21:04:24.754Z,86.55
2023-04-10T21:09:27.269Z,87.50
2023-04-10T21:14:29.546Z,87.89
2023-04-10T21:19:31.621Z,88.25
2023-04-10T21:24:33.393Z,88.65
2023-04-10T21:29:35.784Z,89.45
2023-04-10T21:34:37.981Z,90.13
2023-04-10T21:39:43.108Z,90.42
2023-04-10T21:44:45.916Z,91.07
2023-04-10T21:49:47.897Z,91.79
2023-04-10T21:54:50.087Z,92.18
2023-04-10T21:59:51.753Z,92.12
2023-04-10T22:04:54.736Z,91.86
2023-04-10T22:09:57.453Z,92.11
2023-04-10T22:14:59.840Z,92.84
2023-04-10T22:20:01.832Z,93.05
2023-04-10T22:25:05.341Z,93.52
2023-04-10T22:30:09.363Z,94.03
2023-04-10T22:35:11.244Z,94.27
2023-04-10T22:40:13.435Z,94.61
2023-04-10T22:45:15.514Z,94.85
2023-04-10T22:50:17.800Z,96.03
2023-04-10T22:55:19.572Z,97.04
2023-04-10T23:00:21.649Z,97.18
2023-04-10T23:05:23.524Z,97.62
2023-04-10T23:10:25.935Z,98.21
2023-04-10T23:15:27.700Z,98.97
2023-04-10T23:20:29.566Z,99.68
2023-04-10T23:25:31.347Z,100.00
2023-04-10T23:30:33.219Z,100.00
2023-04-10T23:35:35.123Z,100.00
2023-04-10T23:40:37.178Z,100.00
2023-04-10T23:45:39.473Z,100.00
2023-04-10T23:50:41.356Z,100.00
2023-04-10T23:55:43.215Z,100.00
